Chickering American River Reserve, California Weather observations

Data are for 10 minute period ending at time listed.
 Day   Time   Solar   Ave.   Ave.  Ave.  Vector  Max.   Baro.   Total    
  of    of     Rad.   Air    Rel.  Wind   Wind   Wind  Press.  Precip.   
Year   Day            Temp.  Hum.  Speed  Dir.   Gust                    
2015   (PST)  Kw/m2    F      %     mph   deg.    mph    mb.     in.     
-------------------------------------------------------------------------
  25    3:10   0.00   48.5    44    7.0    44    17.7   826.5    0.00 
  25    3:20   0.00   48.6    44    6.7    49    16.6   826.5    0.00 
  25    3:30   0.00   48.5    44    7.1    50    15.9   826.3    0.00 
  25    3:40   0.00   48.8    44    7.5    48    19.8   826.2    0.00 
  25    3:50   0.00   49.0    44    7.0    42    19.3   826.1    0.00 
  25    4:00   0.00   49.2    44    5.6    45    15.3   826.0    0.00 
  25    4:10   0.00   48.5    45    4.5    47    12.0   826.0    0.00 
  25    4:20   0.00   48.4    45    5.2    44    10.7   826.0    0.00 
  25    4:30   0.00   48.3    45    5.6    54    13.4   826.0    0.00 
  25    4:40   0.00   48.5    45    4.9    48    11.5   825.9    0.00 
  25    4:50   0.00   48.6    45    4.7    45    11.2   825.8    0.00 
  25    5:00   0.00   48.8    44    3.9    40     8.7   825.7    0.00 
  25    5:10   0.00   48.1    46    3.4    35     6.9   825.6    0.00 
  25    5:20   0.00   48.0    45    3.4    37     8.9   825.5    0.00 
  25    5:30   0.00   48.6    44    3.6    50    10.1   825.5    0.00 
  25    5:40   0.00   48.9    43    3.6    55     8.8   825.5    0.00 
  25    5:50   0.00   49.0    43    3.5    62     8.1   825.5    0.00 
  25    6:00   0.00   49.3    42    2.8    62     9.1   825.4    0.00 
  25    6:10   0.00   49.8    40    3.0    72     8.9   825.4    0.00 
  25    6:20   0.00   50.4    39    3.0    77     7.7   825.3    0.00 
  25    6:30   0.00   50.3    39    2.4    77     9.4   825.3    0.00 
  25    6:40   0.00   49.9    39    1.8    33     4.0   825.3    0.00 
  25    6:50   0.00   49.0    41    1.2   318     3.7   825.4    0.00 
  25    7:00   0.00   48.1    41    1.9   317     5.5   825.4    0.00 
  25    7:10   0.00   46.3    48    1.3   251     3.9   825.5    0.00 
  25    7:20   0.00   44.9    50    2.1   235     5.2   825.4    0.00 
  25    7:30   0.00   42.2    58    2.6   224     4.4   825.4    0.00 
  25    7:40   0.00   41.9    58    2.3   213     3.6   825.4    0.00 
  25    7:50   0.00   42.2    56    2.1   235     3.1   825.3    0.00 
  25    8:00   0.01   41.5    59    2.4   221     3.8   825.3    0.00 
  25    8:10   0.01   41.4    59    2.3   227     3.5   825.3    0.00 
  25    8:20   0.03   44.1    52    0.7   199     2.5   825.3    0.00 
  25    8:30   0.03   46.9    49    1.0   352     3.8   825.3    0.00 
  25    8:40   0.03   49.1    43    1.3    63     6.4   825.4    0.00 
  25    8:50   0.03   51.9    38    1.4    56     5.4   825.5    0.00 
  25    9:00   0.03   53.0    37    2.1    81     8.3   825.5    0.00 
  25    9:10   0.03   53.5    36    2.3    63     8.0   825.6    0.00 
  25    9:20   0.03   54.3    36    2.3    67     7.9   825.5    0.00 
  25    9:30   0.03   54.6    36    1.6    84     8.4   825.5    0.00 
  25    9:40   0.03   55.2    34    2.3   118     7.2   825.5    0.00 
  25    9:50   0.03   55.9    34    2.1   167     7.6   825.5    0.00 
  25   10:00   0.03   56.1    33    2.7   166     6.5   825.5    0.00 
  25   10:10   0.03   56.9    32    2.8   114     9.1   825.5    0.00 
  25   10:20   0.03   57.6    32    1.6   152     5.7   825.5    0.00 
  25   10:30   0.08   58.3    31    1.4   116     5.4   825.5    0.00 
  25   10:40   0.44   59.2    29    2.0   103     6.1   825.5    0.00 
  25   10:50   0.54   61.4    28    1.8   141     8.8   825.3    0.00 
  25   11:00   0.55   61.6    27    2.0   170     7.5   825.2    0.00 
  25   11:10   0.57   62.1    26    2.9    99    11.2   824.9    0.00 
  25   11:20   0.58   62.0    26    2.5   130    10.1   824.8    0.00 
  25   11:30   0.59   61.7    26    3.1   170    11.9   824.6    0.00 
  25   11:40   0.59   61.7    26    3.0   135     8.6   824.4    0.00 
  25   11:50   0.60   62.2    25    2.5   116    10.5   824.4    0.00 
  25   12:00   0.61   63.4    24    2.5    75     8.7   824.2    0.00 
  25   12:10   0.61   63.9    23    2.3   152     7.5   824.1    0.00 
  25   12:20   0.61   63.4    23    3.4    77    14.5   824.0    0.00 
  25   12:30   0.61   62.7    24    4.8   102    13.9   823.8    0.00 
  25   12:40   0.59   62.9    23    2.8    99     9.7   823.7    0.00 
  25   12:50   0.59   63.2    23    3.4    52    10.1   823.4    0.00 
  25   13:00   0.59   63.6    22    1.9   162     6.1   823.3    0.00 
  25   13:10   0.58   63.7    22    3.0    97     9.5   823.3    0.00 
  25   13:20   0.57   63.6    22    2.5   110    10.4   823.3    0.00 
  25   13:30   0.55   63.6    22    2.5    85    10.4   823.2    0.00 
  25   13:40   0.42   63.1    22    3.5    86    15.6   823.1    0.00 
  25   13:50   0.42   62.8    24    2.8    97     8.8   823.1    0.00 
  25   14:00   0.51   63.4    22    2.5    78     8.0   823.0    0.00 
  25   14:10   0.49   64.1    24    1.1     8     4.7   822.9    0.00 
  25   14:20   0.47   64.3    23    1.9    47     7.2   822.9    0.00 
  25   14:30   0.19   61.4    25    2.2    81     5.9   822.8    0.00 
  25   14:40   0.06   60.7    25    2.3    77     9.7   822.8    0.00 
  25   14:50   0.29   60.5    25    3.8    55    10.7   822.8    0.00 
  25   15:00   0.22   60.1    26    2.8    80     8.2   822.8    0.00 
  25   15:10   0.04   60.1    25    2.9    91     9.5   822.8    0.00 
  25   15:20   0.01   60.2    25    3.0    72     9.0   822.8    0.00 
  25   15:30   0.01   59.2    27    2.0    68    10.1   822.8    0.00 
  25   15:40   0.01   59.2    26    2.0    89     7.4   822.8    0.00 
  25   15:50   0.01   58.8    26    1.7    79     5.6   822.8    0.00 
  25   16:00   0.01   59.1    26    2.0    99     9.0   822.7    0.00 
  25   16:10   0.01   57.7    30    1.0   118     4.8   822.7    0.00 
  25   16:20   0.01   56.7    32    1.3   106     4.4   822.7    0.00 
  25   16:30   0.00   54.4    36    0.7   120     4.9   822.8    0.00 
  25   16:40   0.00   54.2    34    1.3   100     7.4   822.7    0.00 
  25   16:50   0.00   53.9    34    0.9    70     4.6   822.7    0.00 
  25   17:00   0.00   54.3    33    0.8    83     5.3   822.7    0.00 
  25   17:10   0.00   53.6    34    1.4    47     4.7   822.7    0.00 
  25   17:20   0.00   53.4    35    2.8    50     7.2   822.8    0.00 
  25   17:30   0.00   53.4    36    3.6    56     8.1   822.8    0.00 
  25   17:40   0.00   53.0    36    2.6    60     7.5   822.9    0.00 
  25   17:50   0.00   51.4    40    0.6    52     3.2   823.0    0.00 
  25   18:00   0.00   49.1    43    0.2    34     1.6   823.0    0.00 
  25   18:10   0.00   48.8    43    1.1    25     3.5   823.1    0.00 
  25   18:20   0.00   48.4    42    0.9     9     6.0   823.1    0.00 
  25   18:30   0.00   48.6    42    0.9   175     4.2   823.1    0.00 
  25   18:40   0.00   48.0    43    1.1   298     5.6   823.1    0.00 
  25   18:50   0.00   46.9    46    0.9   250     2.9   823.2    0.00 
  25   19:00   0.00   47.0    45    0.9   308     2.9   823.3    0.00 
  25   19:10   0.00   46.9    45    1.6   252     3.8   823.4    0.00 
  25   19:20   0.00   46.8    45    2.2   245     4.0   823.4    0.00 
  25   19:30   0.00   47.2    45    2.0   254     4.0   823.4    0.00 
  25   19:40   0.00   47.5    44    2.3   231     5.2   823.4    0.00 
  25   19:50   0.00   47.3    45    1.5   200     3.1   823.4    0.00 
  25   20:00   0.00   46.7    45    1.5   282     3.4   823.5    0.00 
  25   20:10   0.00   47.1    45    1.8    37     4.0   823.4    0.00 
  25   20:20   0.00   45.8    47    2.1    48     8.9   823.2    0.00 
  25   20:30   0.00   47.2    43    3.2    57    10.2   823.1    0.00 
  25   20:40   0.00   49.1    40    3.5    67    13.0   823.0    0.00 
  25   20:50   0.00   45.4    48    2.0   215     4.2   823.1    0.00 
  25   21:00   0.00   43.6    50    1.8   215     9.0   823.1    0.00 
  25   21:10   0.00   45.5    45    1.3   239     7.9   823.1    0.00 
  25   21:20   0.00   45.9    44    1.4   254     5.0   823.0    0.00 
  25   21:30   0.00   45.6    46    2.8   240     4.9   822.9    0.00 
  25   21:40   0.00   43.6    51    2.7   226     4.5   823.0    0.00 
  25   21:50   0.00   42.7    50    2.0   240     3.3   823.2    0.00 
  25   22:00   0.00   44.0    48    2.3   228     4.2   823.1    0.00 
  25   22:10   0.00   43.2    49    2.3   232     3.4   823.1    0.00 
  25   22:20   0.00   42.9    49    2.5   232     3.8   823.1    0.00 
  25   22:30   0.00   42.1    51    2.2   226     3.7   823.1    0.00 
  25   22:40   0.00   42.3    50    2.0   249     3.2   823.0    0.00 
  25   22:50   0.00   42.3    50    1.6   219     2.9   822.9    0.00 
  25   23:00   0.00   42.0    49    2.4   230     3.5   822.9    0.00 
  25   23:10   0.00   42.0    51    2.4   220     3.7   822.9    0.00 
  25   23:20   0.00   41.5    52    2.3   221     3.7   822.8    0.00 
  25   23:30   0.00   41.6    51    2.3   238     3.7   822.7    0.00 
  25   23:40   0.00   42.3    50    2.6   235     3.7   822.6    0.00 
  25   23:50   0.00   43.2    48    1.9   272     3.5   822.6    0.00 
  26    0:00   0.00   43.1    48    1.5   245     3.1   822.6    0.00 
  26    0:10   0.00   46.0    43    1.4    47     3.9   822.5    0.00 
  26    0:20   0.00   44.7    44    1.6   290     6.7   822.4    0.00 
  26    0:30   0.00   46.2    43    1.2   302     3.4   822.3    0.00 
  26    0:40   0.00   44.3    46    1.9   221     4.7   822.2    0.00 
  26    0:50   0.00   42.3    49    2.4   223     4.3   822.2    0.00 
  26    1:00   0.00   42.3    50    2.0   221     3.3   822.2    0.00 
  26    1:10   0.00   43.0    49    2.2   217     3.8   822.1    0.00 
  26    1:20   0.00   41.9    51    2.5   233     3.6   822.0    0.00 
  26    1:30   0.00   42.6    48    1.8   238     3.3   821.9    0.00 
  26    1:40   0.00   41.1    54    2.0   192     4.4   821.9    0.00 
  26    1:50   0.00   41.3    54    2.0   210     4.3   821.9    0.00 
  26    2:00   0.00   40.9    54    2.0   220     3.7   821.9    0.00 
  26    2:10   0.00   40.0    58    2.5   205     3.9   821.9    0.00 
  26    2:20   0.00   39.9    57    2.4   205     3.6   821.9    0.00 
  26    2:30   0.00   39.0    60    2.4   204     3.7   821.9    0.00 
  26    2:40   0.00   39.6    58    2.5   206     4.4   821.8    0.00 
  26    2:50   0.00   39.5    59    2.6   208     3.9   821.8    0.00 
  26    3:00   0.00   38.7    61    2.1   195     3.4   821.7    0.00 

Return to Chickering American River Reserve graphs page.


Western Regional Climate Center,wrcc@dri.edu